D/T METAR WX W/DIR W/SPE G/SPE TEMP DEWP
23/05/19 13:50 EGOV 231250Z 21012KT 9999 FEW020 BKN300 14/11 Q1016 BLU NOSIG SSW (210°) 13.8mph 14°C 11°C
23/05/19 12:50 EGOV 231150Z 20012KT 9999 FEW020 BKN300 14/11 Q1016 BLU TEMPO SCT020 WHT SSW (200°) 13.8mph 14°C 11°C
23/05/19 11:50 EGOV 231050Z 20012KT 9999 FEW006 BKN250 14/10 Q1016 BLU NOSIG SSW (200°) 13.8mph 14°C 10°C
23/05/19 10:50 EGOV 230950Z 19014KT 9999 FEW010 BKN061 BKN250 15/10 Q1016 BLU NOSIG S (190°) 16.1mph 15°C 10°C
23/05/19 09:50 EGOV 230850Z 18013KT 9999 FEW008 BKN060 13/10 Q1016 BLU NOSIG S (180°) 15.0mph 13°C 10°C
23/05/19 08:50 EGOV 230750Z 18013KT 9999 FEW007 BKN061 BKN250 13/11 Q1016 BLU NOSIG S (180°) 15.0mph 13°C 11°C
23/05/19 07:50 EGOV 230650Z 18012KT 9999 FEW006 BKN063 OVC250 12/10 Q1016 BLU NOSIG S (180°) 13.8mph 12°C 10°C
23/05/19 06:50 EGOV 230550Z 18012KT 9999 FEW004 BKN058 12/10 Q1016 BLU NOSIG S (180°) 13.8mph 12°C 10°C
23/05/19 05:50 EGOV 230450Z AUTO 18012KT 9999 BKN060/// 11/10 Q1016 S (180°) 13.8mph 11°C 10°C
23/05/19 04:50 EGOV 230350Z AUTO 18011KT 9999 FEW008/// 11/10 Q1016 S (180°) 12.7mph 11°C 10°C
23/05/19 03:50 EGOV 230250Z AUTO 17011KT 9999 NCD 11/09 Q1016 S (170°) 12.7mph 11°C 9°C
23/05/19 02:50 EGOV 230150Z AUTO 18011KT 9999 FEW150/// 11/09 Q1016 S (180°) 12.7mph 11°C 9°C
23/05/19 01:50 EGOV 230050Z AUTO 18012KT 9999 BKN150/// 11/09 Q1017 S (180°) 13.8mph 11°C 9°C
23/05/19 00:50 EGOV 222350Z AUTO 18011KT 9999 SCT150/// 11/09 Q1017 S (180°) 12.7mph 11°C 9°C
22/05/19 23:50 EGOV 222250Z AUTO 18009KT 9999 SCT190/// 11/09 Q1017 S (180°) 10.4mph 11°C 9°C
22/05/19 22:50 EGOV 222150Z AUTO 18010KT 9999 FEW050/// 11/09 Q1018 S (180°) 11.5mph 11°C 9°C
22/05/19 21:50 EGOV 222050Z AUTO 18005KT 9999 BKN050/// BKN140/// 11/09 Q1018 S (180°) 5.8mph 11°C 9°C
22/05/19 20:50 EGOV 221950Z AUTO 19007KT 9999 BKN100/// OVC130/// 11/10 Q1018 S (190°) 8.1mph 11°C 10°C
22/05/19 19:50 EGOV 221850Z AUTO 23005KT 9999 BKN100/// SCT130/// 12/10 Q1018 SW (230°) 5.8mph 12°C 10°C
22/05/19 18:50 EGOV 221750Z 22007KT 9999 FEW006 BKN130 12/10 Q1018 BLU SW (220°) 8.1mph 12°C 10°C
22/05/19 17:50 EGOV 221650Z 22007KT 9999 FEW005 BKN090 13/10 Q1018 BLU NOSIG SW (220°) 8.1mph 13°C 10°C
22/05/19 16:50 EGOV 221550Z 23007KT 9999 FEW005 BKN140 13/10 Q1019 BLU NOSIG SW (230°) 8.1mph 13°C 10°C
22/05/19 15:50 EGOV 221450Z 21008KT 9999 FEW005 SCT100 14/09 Q1019 BLU NOSIG SSW (210°) 9.2mph 14°C 9°C
22/05/19 14:50 EGOV 221350Z 21010KT 9999 FEW018 SCT100 14/10 Q1019 BLU NOSIG SSW (210°) 11.5mph 14°C 10°C
22/05/19 13:50 EGOV 221250Z 21011KT 9999 FEW005 SCT050 14/11 Q1019 BLU NOSIG SSW (210°) 12.7mph 14°C 11°C
22/05/19 12:50 EGOV 221150Z 21010KT 9999 FEW004 SCT005 BKN050 13/10 Q1019 YLO1 BECMG FEW005 BLU SSW (210°) 11.5mph 13°C 10°C
22/05/19 11:50 EGOV 221050Z 21010KT 9999 BKN003 12/10 Q1019 YLO2 TEMPO FEW003 BLU SSW (210°) 11.5mph 12°C 10°C
22/05/19 10:50 EGOV 220950Z 22011KT 9999 BKN003 BKN100 13/10 Q1019 YLO2 TEMPO FEW003 BLU SW (220°) 12.7mph 13°C 10°C
22/05/19 09:50 EGOV 220850Z 21012KT 9999 FEW005 BKN100 12/10 Q1019 BLU NOSIG SSW (210°) 13.8mph 12°C 10°C
22/05/19 08:50 EGOV 220750Z 18011KT 9999 FEW012 BKN100 12/10 Q1019 BLU NOSIG S (180°) 12.7mph 12°C 10°C
22/05/19 07:50 EGOV 220650Z 18013KT 9999 FEW012 OVC110 12/09 Q1018 BLU NOSIG S (180°) 15.0mph 12°C 9°C
22/05/19 06:50 EGOV 220550Z 17012KT 9999 FEW010 BKN060 BKN110 12/09 Q1018 BLU NOSIG S (170°) 13.8mph 12°C 9°C
22/05/19 05:50 EGOV 220450Z AUTO 19011KT 9999 BKN060/// BKN110/// 12/09 Q1018 S (190°) 12.7mph 12°C 9°C
22/05/19 04:50 EGOV 220350Z AUTO 18011KT 9999 BKN070/// BKN120/// 12/09 Q1018 S (180°) 12.7mph 12°C 9°C
22/05/19 03:50 EGOV 220250Z AUTO 17012KT 9999 BKN046/// BKN080/// 12/09 Q1019 S (170°) 13.8mph 12°C 9°C
22/05/19 02:50 EGOV 220150Z AUTO 16008KT 9999 BKN041/// OVC050/// 12/09 Q1019 SSE (160°) 9.2mph 12°C 9°C
22/05/19 01:50 EGOV 220050Z AUTO 17011KT 9999 OVC050/// 12/08 Q1019 RERA S (170°) 12.7mph 12°C 8°C
22/05/19 00:50 EGOV 212350Z AUTO 19010KT 9999 -RADZ OVC050/// 12/09 Q1020 -RA -DZ S (190°) 11.5mph 12°C 9°C
21/05/19 23:50 EGOV 212250Z AUTO 20008KT 9999 OVC050/// 12/09 Q1020 SSW (200°) 9.2mph 12°C 9°C
21/05/19 22:50 EGOV 212150Z AUTO 18006KT 9999 OVC060/// 12/08 Q1020 S (180°) 6.9mph 12°C 8°C
21/05/19 21:50 EGOV 212050Z AUTO 17005KT 9999 BKN050/// 12/08 Q1020 S (170°) 5.8mph 12°C 8°C
21/05/19 20:50 EGOV 211950Z AUTO 21006KT 9999 BKN060/// 12/09 Q1020 SSW (210°) 6.9mph 12°C 9°C
21/05/19 19:50 EGOV 211850Z 23006KT 9999 FEW045 BKN250 12/08 Q1020 BLU SW (230°) 6.9mph 12°C 8°C
21/05/19 18:50 EGOV 211750Z 21004KT 9999 FEW030 BKN250 13/07 Q1020 BLU SSW (210°) 4.6mph 13°C 7°C
21/05/19 17:50 EGOV 211650Z 24006KT 9999 FEW030 SCT250 15/07 Q1021 BLU NOSIG WSW (240°) 6.9mph 15°C 7°C
21/05/19 16:50 EGOV 211550Z 22008KT 9999 FEW030 SCT250 15/09 Q1021 BLU NOSIG SW (220°) 9.2mph 15°C 9°C
21/05/19 15:50 EGOV 211450Z 28003KT 9999 FEW025 15/06 Q1021 BLU NOSIG W (280°) 3.5mph 15°C 6°C
21/05/19 14:50 EGOV 211350Z 32007KT 9999 FEW018 SCT250 15/06 Q1021 BLU NOSIG NW (320°) 8.1mph 15°C 6°C